Marion, South Dakota
Current Conditions -  °F | °C
As of 10:56 AM on Friday 24 Oct 2014 (Local Time) from KFSD Reporting Station
Broken Clouds Broken Clouds  
Wind Chill: 58°   Ceiling: 20000
Heat Index: 58°   Visibility: 10mi
Dew Point: 50°   Wind: 5mph
Humidity: 75%   Direction: 330°NNW
Pressure: 29.9"   Gusts: NA
Location:  43.42°N, 97.26°W
Report Text: KFSD 241556Z 33004KT 10SM BKN200 14/10 A2990 RMK AO2 SLP125 T01440100
Loading
Personal Weather Stations






























Interactive Weather Map New forecast layout! Learn more

10-Day Weather Forecast

Advertisements
Track Severe Weather on mobile